createdAt,value
2023-04-05T00:01:02.945Z,1.80
2023-04-05T00:03:31.421Z,1.80
2023-04-05T00:05:59.328Z,1.90
2023-04-05T00:08:28.398Z,1.90
2023-04-05T00:10:56.317Z,1.90
2023-04-05T00:13:25.627Z,1.90
2023-04-05T00:15:53.461Z,1.90
2023-04-05T00:18:23.783Z,1.90
2023-04-05T00:20:52.216Z,1.80
2023-04-05T00:23:21.275Z,1.80
2023-04-05T00:25:49.291Z,1.80
2023-04-05T00:28:17.029Z,1.80
2023-04-05T00:30:46.158Z,1.90
2023-04-05T00:33:14.635Z,2.00
2023-04-05T00:35:42.527Z,2.00
2023-04-05T00:38:10.406Z,1.90
2023-04-05T00:40:38.220Z,2.00
2023-04-05T00:43:06.082Z,2.00
2023-04-05T00:45:34.497Z,2.00
2023-04-05T00:48:04.044Z,2.00
2023-04-05T00:50:31.902Z,1.90
2023-04-05T00:52:59.897Z,1.90
2023-04-05T00:55:28.407Z,1.80
2023-04-05T00:57:56.903Z,1.80
2023-04-05T01:00:26.064Z,1.80
2023-04-05T01:02:57.812Z,1.90
2023-04-05T01:05:36.109Z,1.90
2023-04-05T01:08:12.993Z,1.90
2023-04-05T01:10:45.714Z,1.90
2023-04-05T01:13:13.602Z,1.90
2023-04-05T01:15:42.504Z,1.90
2023-04-05T01:18:11.918Z,1.90
2023-04-05T01:20:47.116Z,1.90
2023-04-05T01:23:34.745Z,1.80
2023-04-05T01:26:29.780Z,1.80
2023-04-05T01:29:22.293Z,1.80
2023-04-05T01:31:57.413Z,1.80
2023-04-05T01:34:34.458Z,1.80
2023-04-05T01:37:04.322Z,1.80
2023-04-05T01:39:32.876Z,1.80
2023-04-05T01:42:01.823Z,1.80
2023-04-05T01:44:29.871Z,1.70
2023-04-05T01:46:58.916Z,1.70
2023-04-05T01:49:26.889Z,1.70
2023-04-05T01:51:54.683Z,1.60
2023-04-05T01:54:22.432Z,1.60
2023-04-05T01:56:50.701Z,1.60
2023-04-05T01:59:18.587Z,1.60
2023-04-05T02:01:46.380Z,1.70
2023-04-05T02:04:15.463Z,1.70
2023-04-05T02:06:43.232Z,1.70
2023-04-05T02:09:11.044Z,1.60
2023-04-05T02:11:38.819Z,1.60
2023-04-05T02:14:06.923Z,1.60
2023-04-05T02:16:34.692Z,1.60
2023-04-05T02:19:02.535Z,1.60
2023-04-05T02:21:31.939Z,1.60
2023-04-05T02:23:59.736Z,1.60
2023-04-05T02:26:29.185Z,1.70
2023-04-05T02:28:56.977Z,1.70
2023-04-05T02:31:24.757Z,1.70
2023-04-05T02:33:52.544Z,1.70
2023-04-05T02:36:22.144Z,1.70
2023-04-05T02:38:51.250Z,1.70
2023-04-05T02:41:20.015Z,1.70
2023-04-05T02:43:47.741Z,1.70
2023-04-05T02:46:15.537Z,1.60
2023-04-05T02:48:43.348Z,1.60
2023-04-05T02:51:11.107Z,1.60
2023-04-05T02:53:38.862Z,1.70
2023-04-05T02:56:08.797Z,1.70
2023-04-05T02:58:36.620Z,1.70
2023-04-05T03:01:07.430Z,1.60
2023-04-05T03:03:35.635Z,1.60
2023-04-05T03:06:10.032Z,1.60
2023-04-05T03:08:38.759Z,1.50
2023-04-05T03:11:08.303Z,1.50
2023-04-05T03:13:36.139Z,1.50
2023-04-05T03:16:03.933Z,1.50
2023-04-05T03:18:31.754Z,1.50
2023-04-05T03:21:04.356Z,1.50
2023-04-05T03:23:33.341Z,1.40
2023-04-05T03:26:01.855Z,1.50
2023-04-05T03:28:32.312Z,1.40
2023-04-05T03:31:00.269Z,1.40
2023-04-05T03:33:28.040Z,1.40
2023-04-05T03:35:55.962Z,1.40
2023-04-05T03:38:23.686Z,1.40
2023-04-05T03:40:51.438Z,1.30
2023-04-05T03:43:19.248Z,1.30
2023-04-05T03:45:48.373Z,1.40
2023-04-05T03:48:20.044Z,1.40
2023-04-05T03:50:48.087Z,1.40
2023-04-05T03:53:17.598Z,1.40
2023-04-05T03:55:49.280Z,1.40
2023-04-05T03:58:17.142Z,1.30
2023-04-05T04:00:45.030Z,1.20
2023-04-05T04:03:15.202Z,1.20
2023-04-05T04:05:43.516Z,1.20
2023-04-05T04:08:11.677Z,1.20
2023-04-05T04:10:39.441Z,1.10
2023-04-05T04:13:07.225Z,1.00
2023-04-05T04:15:35.009Z,1.10
2023-04-05T04:18:02.808Z,1.10
2023-04-05T04:20:32.041Z,1.00
2023-04-05T04:23:01.253Z,1.00
2023-04-05T04:25:30.918Z,1.00
2023-04-05T04:27:59.601Z,0.90
2023-04-05T04:30:27.422Z,0.90
2023-04-05T04:32:58.819Z,0.90
2023-04-05T04:35:28.950Z,0.90
2023-04-05T04:37:59.490Z,0.90
2023-04-05T04:40:32.533Z,0.90
2023-04-05T04:43:00.359Z,0.90
2023-04-05T04:45:28.113Z,1.00
2023-04-05T04:47:55.879Z,1.00
2023-04-05T04:50:24.280Z,1.00
2023-04-05T04:52:52.013Z,1.00
2023-04-05T04:55:25.307Z,1.00
2023-04-05T04:57:53.776Z,1.00
2023-04-05T07:03:47.521Z,2.80
2023-04-05T07:06:15.735Z,2.90
2023-04-05T09:13:25.357Z,5.90
2023-04-05T09:15:53.870Z,5.80
2023-04-05T09:18:26.752Z,5.90
2023-04-05T09:21:02.792Z,5.80
2023-04-05T09:23:30.650Z,5.70
2023-04-05T09:26:00.450Z,5.80
2023-04-05T09:28:43.811Z,6.20
2023-04-05T09:31:31.250Z,6.60
2023-04-05T09:34:00.984Z,6.30
2023-04-05T09:36:29.234Z,6.60
2023-04-05T09:39:07.347Z,6.70
2023-04-05T09:41:35.752Z,7.00
2023-04-05T09:44:05.284Z,7.00
2023-04-05T09:46:35.079Z,7.10
2023-04-05T09:49:03.900Z,7.20
2023-04-05T09:51:36.452Z,6.80
2023-04-05T09:54:06.043Z,6.80
2023-04-05T09:56:35.449Z,6.70
2023-04-05T09:59:10.776Z,6.70
2023-04-05T10:01:41.173Z,6.60
2023-04-05T10:04:12.771Z,6.80
2023-04-05T10:06:42.525Z,6.70
2023-04-05T10:09:11.856Z,6.40
2023-04-05T10:11:40.414Z,6.10
2023-04-05T10:14:10.706Z,6.20
2023-04-05T10:16:43.596Z,6.40
2023-04-05T10:19:17.616Z,6.20
2023-04-05T10:21:47.671Z,6.20
2023-04-05T10:24:34.697Z,6.30
2023-04-05T10:27:06.751Z,6.20
2023-04-05T10:29:42.176Z,6.30
2023-04-05T10:32:14.857Z,6.40
2023-04-05T10:34:46.260Z,6.10
2023-04-05T10:37:23.614Z,6.30
2023-04-05T10:39:51.539Z,6.50
2023-04-05T10:42:22.776Z,6.60
2023-04-05T10:44:55.590Z,6.80
2023-04-05T10:47:28.453Z,6.90
2023-04-05T10:50:01.418Z,7.10
2023-04-05T10:52:30.064Z,7.10
2023-04-05T10:55:00.002Z,6.80
2023-04-05T10:57:28.458Z,7.00
2023-04-05T11:00:00.702Z,7.20
2023-04-05T11:02:29.883Z,7.30
2023-04-05T11:05:08.698Z,7.10
2023-04-05T11:07:44.913Z,7.40
2023-04-05T11:10:18.149Z,7.70
2023-04-05T11:13:06.102Z,8.50
2023-04-05T11:15:36.255Z,9.20
2023-04-05T11:18:06.336Z,8.90
2023-04-05T11:20:56.175Z,8.90
2023-04-05T11:23:25.838Z,8.70
2023-04-05T11:25:56.077Z,9.10
2023-04-05T11:28:25.925Z,9.30
2023-04-05T11:30:58.797Z,8.70
2023-04-05T11:33:56.874Z,8.40
2023-04-05T11:36:34.638Z,8.00
2023-04-05T11:39:29.312Z,8.20
2023-04-05T11:42:08.072Z,8.50
2023-04-05T11:44:44.834Z,8.60
2023-04-05T11:47:14.864Z,8.80
2023-04-05T11:49:43.161Z,9.10
2023-04-05T11:52:13.034Z,9.50
2023-04-05T11:54:45.844Z,9.90
2023-04-05T11:57:16.045Z,11.10
2023-04-05T11:59:44.238Z,11.40
2023-04-05T12:02:14.015Z,11.00
2023-04-05T12:04:41.785Z,10.40
2023-04-05T12:07:14.048Z,10.50
2023-04-05T12:10:02.391Z,10.40
2023-04-05T12:12:35.300Z,10.40
2023-04-05T12:15:04.193Z,9.70
2023-04-05T12:17:47.301Z,9.30
2023-04-05T12:20:16.329Z,9.30
2023-04-05T12:22:45.831Z,9.20
2023-04-05T12:25:17.078Z,8.90
2023-04-05T12:27:44.997Z,8.70
2023-04-05T12:30:15.784Z,8.60
2023-04-05T12:32:49.241Z,8.40
2023-04-05T12:35:18.858Z,8.30
2023-04-05T12:37:47.545Z,8.30
2023-04-05T12:40:15.939Z,7.60
2023-04-05T12:42:46.947Z,7.70
2023-04-05T12:45:15.568Z,7.10
2023-04-05T12:47:52.484Z,7.20
2023-04-05T12:50:26.103Z,6.90
2023-04-05T12:52:57.980Z,7.00
2023-04-05T12:55:28.499Z,7.20
2023-04-05T12:58:01.998Z,7.40
2023-04-05T13:00:30.971Z,7.40
2023-04-05T13:03:01.057Z,7.40
2023-04-05T13:05:30.821Z,7.00
2023-04-05T13:07:58.699Z,6.90
2023-04-05T13:10:27.516Z,7.10
2023-04-05T13:12:55.318Z,6.90
2023-04-05T13:15:23.309Z,6.90
2023-04-05T13:17:54.808Z,6.80
2023-04-05T13:20:24.408Z,7.00
2023-04-05T13:22:52.315Z,7.20
2023-04-05T13:25:20.152Z,7.10
2023-04-05T13:27:47.978Z,7.10
2023-04-05T13:30:16.151Z,7.10
2023-04-05T13:32:43.954Z,7.20
2023-04-05T13:35:13.868Z,8.20
2023-04-05T13:37:42.973Z,9.80
2023-04-05T13:40:11.516Z,11.30
2023-04-05T13:42:39.532Z,11.90
2023-04-05T13:45:08.370Z,12.50
2023-04-05T13:47:36.586Z,13.10
2023-04-05T13:50:04.845Z,12.90
2023-04-05T13:52:32.843Z,12.10
2023-04-05T13:55:03.563Z,11.40
2023-04-05T13:57:32.290Z,10.50
2023-04-05T14:00:00.282Z,11.30
2023-04-05T14:02:28.554Z,11.20
2023-04-05T14:04:56.526Z,11.40
2023-04-05T14:07:24.766Z,11.50
2023-04-05T14:09:52.493Z,10.40
2023-04-05T14:12:21.755Z,11.10
2023-04-05T14:14:49.735Z,12.80
2023-04-05T14:17:17.638Z,12.10
2023-04-05T14:19:45.414Z,11.20
2023-04-05T14:22:13.231Z,10.60
2023-04-05T14:24:41.212Z,10.30
2023-04-05T14:27:09.004Z,10.30
2023-04-05T14:29:38.011Z,10.10
2023-04-05T14:32:06.395Z,9.60
2023-04-05T14:34:34.622Z,8.80
2023-04-05T14:37:04.058Z,8.40
2023-04-05T14:39:33.935Z,8.60
2023-04-05T14:42:02.023Z,8.60
2023-04-05T14:44:29.880Z,8.60
2023-04-05T14:46:58.943Z,8.30
2023-04-05T14:49:26.937Z,8.40
2023-04-05T14:51:54.630Z,8.20
2023-04-05T14:54:22.404Z,8.00
2023-04-05T14:56:50.135Z,7.90
2023-04-05T14:59:18.000Z,8.00
2023-04-05T15:01:47.284Z,8.20
2023-04-05T15:04:16.450Z,8.20
2023-04-05T15:06:44.340Z,8.30
2023-04-05T15:09:12.152Z,8.30
2023-04-05T15:11:40.277Z,8.40
2023-04-05T15:14:11.490Z,8.40
2023-04-05T15:16:43.947Z,8.50
2023-04-05T15:19:12.048Z,8.40
2023-04-05T15:21:41.228Z,8.50
2023-04-05T15:24:09.104Z,8.20
2023-04-05T15:26:36.841Z,8.10
2023-04-05T15:29:11.921Z,8.10
2023-04-05T15:31:41.306Z,8.00
2023-04-05T15:34:09.232Z,8.10
2023-04-05T15:36:37.110Z,8.10
2023-04-05T15:39:06.298Z,8.00
2023-04-05T15:41:35.209Z,8.00
2023-04-05T15:44:03.745Z,8.10
2023-04-05T15:46:32.348Z,8.00
2023-04-05T15:49:00.511Z,7.90
2023-04-05T15:51:28.892Z,7.80
2023-04-05T15:53:56.833Z,7.80
2023-04-05T15:56:29.272Z,7.70
2023-04-05T15:59:00.727Z,7.70
2023-04-05T16:01:28.779Z,7.60
2023-04-05T16:03:56.650Z,7.70
2023-04-05T16:06:28.159Z,7.40
2023-04-05T16:08:55.918Z,7.50
2023-04-05T16:11:27.703Z,7.50
2023-04-05T16:13:56.946Z,7.50
2023-04-05T16:16:35.398Z,7.60
2023-04-05T16:19:10.461Z,7.60
2023-04-05T16:21:38.375Z,7.50
2023-04-05T16:24:08.477Z,7.30
2023-04-05T16:26:37.753Z,7.40
2023-04-05T16:29:05.736Z,7.40
2023-04-05T16:31:33.815Z,7.30
2023-04-05T16:34:01.752Z,7.20
2023-04-05T16:36:29.524Z,7.30
2023-04-05T16:38:57.350Z,7.40
2023-04-05T16:41:25.198Z,7.30
2023-04-05T16:43:54.511Z,7.20
2023-04-05T16:46:22.650Z,7.20
2023-04-05T16:48:50.598Z,7.20
2023-04-05T16:51:18.565Z,7.10
2023-04-05T16:53:46.283Z,7.10
2023-04-05T16:56:14.072Z,7.00
2023-04-05T16:58:42.059Z,7.10
2023-04-05T17:01:11.617Z,7.00
2023-04-05T17:03:39.635Z,6.90
2023-04-05T17:06:08.156Z,6.90
2023-04-05T17:08:36.198Z,6.90
2023-04-05T17:11:04.147Z,6.80
2023-04-05T17:13:32.068Z,6.80
2023-04-05T17:15:59.861Z,6.70
2023-04-05T17:18:29.180Z,6.70
2023-04-05T17:20:56.937Z,6.70
2023-04-05T17:23:25.459Z,6.80
2023-04-05T17:25:53.206Z,7.00
2023-04-05T17:28:20.941Z,7.20
2023-04-05T17:30:48.736Z,7.20
2023-04-05T17:33:16.571Z,7.00
2023-04-05T17:35:47.731Z,6.80
2023-04-05T17:38:15.804Z,6.60
2023-04-05T17:40:43.535Z,6.50
2023-04-05T17:43:12.774Z,6.40
2023-04-05T17:45:40.534Z,6.20
2023-04-05T17:48:08.520Z,6.10
2023-04-05T17:50:38.645Z,6.00
2023-04-05T17:53:07.738Z,5.90
2023-04-05T17:55:35.610Z,5.80
2023-04-05T17:58:03.460Z,5.80
2023-04-05T18:00:31.247Z,5.70
2023-04-05T18:03:04.870Z,5.70
2023-04-05T18:05:35.701Z,5.60
2023-04-05T18:08:03.634Z,5.60
2023-04-05T18:10:32.793Z,5.60
2023-04-05T18:13:02.822Z,5.60
2023-04-05T18:15:31.781Z,5.60
2023-04-05T18:17:59.612Z,5.50
2023-04-05T18:20:27.440Z,5.40
2023-04-05T18:22:55.323Z,5.30
2023-04-05T18:25:35.990Z,5.30
2023-04-05T18:28:22.864Z,5.30
2023-04-05T18:34:46.126Z,5.00
2023-04-05T18:37:15.398Z,4.80
2023-04-05T18:40:30.314Z,4.70
2023-04-05T18:46:46.746Z,4.70
2023-04-05T18:49:21.351Z,4.70
2023-04-05T18:52:37.414Z,4.70
2023-04-05T18:55:05.908Z,4.70
2023-04-05T18:57:38.529Z,4.60
2023-04-05T19:00:21.790Z,4.50
2023-04-05T19:06:40.191Z,4.40
2023-04-05T19:09:15.239Z,4.40
2023-04-05T19:11:42.990Z,4.30
2023-04-05T19:15:08.076Z,4.30
2023-04-05T19:18:07.084Z,4.30
2023-04-05T19:20:38.741Z,4.30
2023-04-05T19:23:39.837Z,4.30
2023-04-05T19:26:36.204Z,4.20
2023-04-05T19:29:04.373Z,3.90
2023-04-05T19:31:36.105Z,3.80
2023-04-05T19:34:03.997Z,3.70
2023-04-05T19:36:56.440Z,3.80
2023-04-05T19:39:38.061Z,3.80
2023-04-05T19:42:08.048Z,3.80
2023-04-05T19:44:39.057Z,3.90
2023-04-05T19:47:14.957Z,3.80
2023-04-05T19:49:49.298Z,3.80
2023-04-05T19:53:02.080Z,3.70
2023-04-05T19:55:33.416Z,3.60
2023-04-05T19:58:08.268Z,3.70
2023-04-05T20:00:39.122Z,3.60
2023-04-05T20:03:27.601Z,3.50
2023-04-05T20:06:16.568Z,3.40
2023-04-05T20:11:56.008Z,3.10
2023-04-05T20:14:30.301Z,3.10
2023-04-05T20:17:04.183Z,3.10
2023-04-05T20:19:32.631Z,3.00
2023-04-05T20:22:02.253Z,2.90
2023-04-05T20:24:30.423Z,2.90
2023-04-05T20:26:58.478Z,2.80
2023-04-05T20:29:32.335Z,2.80
2023-04-05T20:32:01.915Z,2.90
2023-04-05T20:34:32.165Z,2.70
2023-04-05T20:37:06.330Z,2.70
2023-04-05T20:39:35.599Z,2.60
2023-04-05T20:42:03.837Z,2.60
2023-04-05T20:44:33.250Z,2.50
2023-04-05T20:51:06.223Z,2.60
2023-04-05T20:53:36.945Z,2.90
2023-04-05T21:00:48.093Z,2.90
2023-04-05T21:03:21.487Z,3.00
2023-04-05T21:06:57.488Z,2.90
